Terminal Aerodrome Forecast
Issued by NWS

Home | Current Version | Previous Version | Text Only | Print | Product List | Glossary On
Versions: 1 2 3 4 5 6 7 8 9 10 11 12 13 14 15 16 17 18
538
FTUS45 KFGZ 271527 AAB
TAFPRC
TAF AMD
KPRC 271527Z 2715/2812 19006KT P6SM SCT035 BKN080 OVC120
      TEMPO 2715/2717 VRB18G28KT 4SM TSRA BKN035CB
     FM271800 VRB06KT P6SM SCT050 BKN080
      TEMPO 2719/2723 VRB15G25KT 5SM -TSRA BKN050CB
     FM280200 VRB05KT P6SM SCT060 BKN080=

USA.gov is the U.S. government's official web portal to all federal, state and local government web resources and services.